Time;durP1;ratioP1;P1;durP2;ratioP2;P2;SDS_P1;SDS_P2;PMS_P1;PMS_P2;Temp;Humidity;BMP_temperature;BMP_pressure;BME280_temperature;BME280_humidity;BME280_pressure;Samples;Min_cycle;Max_cycle;Signal;HPM_P1;HPM_P2
2021/01/30 00:16:26;;;;;;;;;;;;;;;4.61;100.00;98354.22;4826784;29;20163;-80
2021/01/30 00:19:30;;;;;;;;;;;;;;;4.62;100.00;98360.50;4889439;29;19922;-81
2021/01/30 00:22:34;;;;;;;;;;;;;;;4.59;100.00;98359.44;5004834;28;20378;-81
2021/01/30 00:25:37;;;;;;;;;;;;;;;4.58;100.00;98354.41;5013464;28;19913;-80
2021/01/30 00:28:40;;;;;;;;;;;;;;;4.56;100.00;98352.13;5014183;28;19913;-79
2021/01/30 00:31:44;;;;;;;;;;;;;;;4.55;100.00;98328.53;5014066;28;20338;-81
2021/01/30 00:34:48;;;;;;;;;;;;;;;4.53;100.00;98331.00;5013275;28;20261;-80
2021/01/30 00:37:51;;;;;;;;;;;;;;;4.52;100.00;98340.53;5013893;28;19925;-80
2021/01/30 00:40:54;;;;;;;;;;;;;;;4.50;100.00;98333.94;5014172;28;19913;-80
2021/01/30 00:43:58;;;;;;;;;;;;;;;4.49;100.00;98330.44;5013591;28;20362;-80
2021/01/30 00:47:02;;;;;;;;;;;;;;;4.48;100.00;98323.38;5013221;28;19916;-78
2021/01/30 00:50:05;;;;;;;;;;;;;;;4.46;100.00;98306.56;5013981;28;19925;-79
2021/01/30 00:53:08;;;;;;;;;;;;;;;4.47;100.00;98310.06;5021959;28;20358;-80
2021/01/30 00:56:12;;;;;;;;;;;;;;;4.40;100.00;98300.19;5033323;28;19924;-80
2021/01/30 00:59:15;;;;;;;;;;;;;;;4.40;100.00;98299.41;5034134;28;20289;-80
2021/01/30 01:02:18;;;;;;;;;;;;;;;4.46;100.00;98301.03;5009975;28;21068;-79
2021/01/30 01:05:22;;;;;;;;;;;;;;;4.47;100.00;98299.06;4993988;28;19901;-80
2021/01/30 01:08:26;;;;;;;;;;;;;;;4.38;100.00;98301.88;4993418;28;19905;-79
2021/01/30 01:11:30;;;;;;;;;;;;;;;4.44;100.00;98309.03;4993581;28;20113;-80
2021/01/30 01:40:54;;;;;;;;;;;;;;;;;;;;;
2021/01/30 02:04:35;;;;;;;;;;;;;;;4.31;100.00;98241.63;4950604;28;19913;-82
2021/01/30 02:07:40;;;;;;;;;;;;;;;4.23;100.00;98238.47;4972624;28;19902;-81
2021/01/30 02:10:46;;;;;;;;;;;;;;;4.19;100.00;98246.16;4971776;28;19902;-81
2021/01/30 02:13:51;;;;;;;;;;;;;;;4.20;100.00;98249.69;4972249;28;19901;-81
2021/01/30 02:17:20;;;;;;;;;;;;;;;4.12;100.00;98232.75;4970891;28;19901;-81
2021/01/30 02:20:29;;;;;;;;;;;;;;;4.10;100.00;98231.69;4970525;28;20961;-79
2021/01/30 02:23:48;;;;;;;;;;;;;;;4.10;100.00;98231.69;4971667;28;20820;-78
2021/01/30 02:26:54;;;;;;;;;;;;;;;4.09;100.00;98230.94;4970119;28;20526;-79
2021/01/30 02:29:58;;;;;;;;;;;;;;;4.06;100.00;98226.38;4972165;28;20651;-78
2021/01/30 02:33:13;;;;;;;;;;;;;;;4.09;100.00;98222.69;5014656;28;19913;-79
2021/01/30 02:36:32;;;;;;;;;;;;;;;4.08;100.00;98223.91;5015299;28;19913;-78
2021/01/30 02:39:42;;;;;;;;;;;;;;;4.02;100.00;98209.28;5014024;28;19910;-76
2021/01/30 02:42:57;;;;;;;;;;;;;;;3.94;100.00;98213.63;5013786;28;19921;-79
2021/01/30 02:46:04;;;;;;;;;;;;;;;3.77;100.00;98215.25;5014360;28;19913;-78
2021/01/30 02:49:10;;;;;;;;;;;;;;;3.85;100.00;98208.94;5012658;28;19913;-78
2021/01/30 02:52:16;;;;;;;;;;;;;;;3.91;100.00;98220.06;5016487;28;19917;-78
2021/01/30 02:55:20;;;;;;;;;;;;;;;3.91;100.00;98214.56;5015822;28;20353;-74
2021/01/30 02:58:27;;;;;;;;;;;;;;;3.90;100.00;98206.78;5015306;28;20385;-77
2021/01/30 03:01:37;;;;;;;;;;;;;;;3.91;100.00;98211.03;5015005;28;20293;-77
2021/01/30 03:04:43;;;;;;;;;;;;;;;3.91;100.00;98209.06;5015085;28;20374;-77
2021/01/30 03:07:58;;;;;;;;;;;;;;;3.88;100.00;98207.22;5014734;28;19917;-77
2021/01/30 03:11:06;;;;;;;;;;;;;;;3.82;100.00;98201.63;5015283;28;20386;-76
2021/01/30 03:14:10;;;;;;;;;;;;;;;3.83;100.00;98203.13;5015171;28;19913;-77
2021/01/30 03:17:14;;;;;;;;;;;;;;;3.69;100.00;98190.09;5014875;28;19917;-77
2021/01/30 03:20:18;;;;;;;;;;;;;;;3.74;100.00;98185.94;5015312;28;19913;-77
2021/01/30 03:23:22;;;;;;;;;;;;;;;3.74;100.00;98172.94;5034375;28;20297;-77
2021/01/30 03:26:27;;;;;;;;;;;;;;;3.74;100.00;98166.66;5035056;28;19916;-77
2021/01/30 03:29:30;;;;;;;;;;;;;;;3.81;100.00;98158.06;5035091;28;19913;-76
2021/01/30 03:32:33;;;;;;;;;;;;;;;3.77;100.00;98160.19;5035070;28;19917;-77
2021/01/30 03:35:37;;;;;;;;;;;;;;;3.76;100.00;98156.72;5034415;28;20361;-77
2021/01/30 03:38:41;;;;;;;;;;;;;;;3.79;100.00;98143.97;5034993;28;19912;-77
2021/01/30 03:41:45;;;;;;;;;;;;;;;3.79;100.00;98158.50;5034717;28;19921;-76
2021/01/30 03:44:48;;;;;;;;;;;;;;;3.81;100.00;98144.28;5034750;28;19913;-77
2021/01/30 03:47:52;;;;;;;;;;;;;;;3.83;100.00;98147.31;5034646;28;19913;-76
2021/01/30 03:50:55;;;;;;;;;;;;;;;3.83;100.00;98130.81;5034891;28;19913;-77
2021/01/30 03:53:59;;;;;;;;;;;;;;;3.82;100.00;98129.28;5034597;28;19912;-77
2021/01/30 03:57:02;;;;;;;;;;;;;;;3.82;100.00;98129.28;5034421;28;20005;-77
2021/01/30 04:00:08;;;;;;;;;;;;;;;3.70;100.00;98122.78;5033682;28;19913;-77
2021/01/30 04:03:12;;;;;;;;;;;;;;;3.75;100.00;98118.63;5034278;28;19917;-77
2021/01/30 04:06:16;;;;;;;;;;;;;;;3.69;100.00;98115.78;5034448;28;19913;-76
2021/01/30 04:09:20;;;;;;;;;;;;;;;3.75;100.00;98108.38;5034423;28;19913;-77
2021/01/30 04:12:23;;;;;;;;;;;;;;;3.75;100.00;98111.13;5034064;28;19917;-77
2021/01/30 04:15:28;;;;;;;;;;;;;;;3.74;100.00;98111.59;5021716;28;19912;-77
2021/01/30 04:18:32;;;;;;;;;;;;;;;3.71;100.00;98101.53;5034328;28;19913;-77
2021/01/30 04:21:37;;;;;;;;;;;;;;;3.72;100.00;98095.56;5028622;28;19913;-77
2021/01/30 04:24:44;;;;;;;;;;;;;;;3.70;100.00;98086.25;5014394;28;20266;-77
2021/01/30 04:27:47;;;;;;;;;;;;;;;3.70;100.00;98094.53;5014151;28;20289;-77
2021/01/30 04:30:50;;;;;;;;;;;;;;;3.68;100.00;98091.47;5014275;28;19914;-77
2021/01/30 04:33:53;;;;;;;;;;;;;;;3.64;100.00;98102.66;5014115;28;19914;-76
2021/01/30 04:36:57;;;;;;;;;;;;;;;3.63;100.00;98100.38;5014162;28;20294;-77
2021/01/30 04:40:00;;;;;;;;;;;;;;;3.59;100.00;98099.81;5014014;28;19914;-77
2021/01/30 04:43:09;;;;;;;;;;;;;;;3.58;100.00;98087.25;5014056;28;19928;-77
2021/01/30 04:46:31;;;;;;;;;;;;;;;3.57;100.00;98083.75;5013873;28;19913;-77
2021/01/30 04:50:00;;;;;;;;;;;;;;;3.57;100.00;98075.50;5013792;28;19913;-77
2021/01/30 04:53:12;;;;;;;;;;;;;;;3.51;100.00;98060.88;5014223;28;19917;-77
2021/01/30 04:56:28;;;;;;;;;;;;;;;3.49;100.00;98068.84;5023390;28;19917;-77
2021/01/30 04:59:42;;;;;;;;;;;;;;;3.49;100.00;98062.56;5034708;28;19912;-77
2021/01/30 05:03:01;;;;;;;;;;;;;;;3.45;100.00;98057.25;5038313;28;19917;-77
2021/01/30 05:06:08;;;;;;;;;;;;;;;3.44;100.00;98066.00;5033462;28;20510;-77
2021/01/30 05:09:14;;;;;;;;;;;;;;;3.45;100.00;98057.25;5033110;28;20358;-77
2021/01/30 05:12:38;;;;;;;;;;;;;;;3.45;100.00;98070.25;5032878;28;20377;-77
2021/01/30 05:15:43;;;;;;;;;;;;;;;3.44;100.00;98072.25;5011264;28;19913;-76
2021/01/30 05:18:53;;;;;;;;;;;;;;;3.48;100.00;98067.34;5033113;28;19916;-77
2021/01/30 05:21:58;;;;;;;;;;;;;;;3.45;100.00;98062.00;5025027;28;20378;-77
2021/01/30 05:25:03;;;;;;;;;;;;;;;3.41;100.00;98067.69;5013745;28;19913;-77
2021/01/30 05:28:09;;;;;;;;;;;;;;;3.40;100.00;98057.16;5013260;28;19913;-76
2021/01/30 05:31:15;;;;;;;;;;;;;;;3.36;100.00;98048.31;5013908;28;19913;-76
2021/01/30 05:34:31;;;;;;;;;;;;;;;3.30;100.00;98048.22;5013300;28;19914;-77
2021/01/30 05:37:36;;;;;;;;;;;;;;;3.31;100.00;98032.47;5012439;28;19913;-76
2021/01/30 05:40:45;;;;;;;;;;;;;;;3.32;100.00;98031.22;5013041;28;19913;-76
2021/01/30 05:43:53;;;;;;;;;;;;;;;3.30;100.00;98048.22;5012975;28;19918;-77
2021/01/30 05:46:56;;;;;;;;;;;;;;;3.17;100.00;98024.94;5013107;28;20366;-77
2021/01/30 05:50:03;;;;;;;;;;;;;;;3.10;100.00;98037.06;5011897;28;19913;-76
2021/01/30 05:53:07;;;;;;;;;;;;;;;2.83;100.00;98045.50;5013272;28;19914;-76
2021/01/30 05:56:10;;;;;;;;;;;;;;;2.80;100.00;98038.94;5022110;28;19941;-76
2021/01/30 05:59:17;;;;;;;;;;;;;;;2.76;100.00;98035.59;5032896;28;19917;-77
2021/01/30 06:02:23;;;;;;;;;;;;;;;2.65;100.00;98037.34;5032520;28;19917;-75
2021/01/30 06:05:30;;;;;;;;;;;;;;;2.57;100.00;98045.19;5032425;28;19917;-77
2021/01/30 06:08:33;;;;;;;;;;;;;;;2.54;100.00;98028.84;5032809;28;20381;-76
2021/01/30 06:11:47;;;;;;;;;;;;;;;2.63;100.00;98032.31;5029470;28;19913;-76
2021/01/30 06:14:51;;;;;;;;;;;;;;;2.48;100.00;98041.69;5032511;28;19913;-76
2021/01/30 06:17:54;;;;;;;;;;;;;;;2.32;100.00;98034.59;5032455;28;19913;-77
2021/01/30 06:20:58;;;;;;;;;;;;;;;2.30;100.00;98032.31;5032390;28;19913;-77
2021/01/30 06:24:05;;;;;;;;;;;;;;;2.20;100.00;98030.06;5021184;28;19917;-76
2021/01/30 06:27:09;;;;;;;;;;;;;;;2.12;100.00;98037.13;5036441;28;19913;-77
2021/01/30 06:30:24;;;;;;;;;;;;;;;2.06;100.00;98039.72;5035791;28;20285;-76
2021/01/30 06:33:30;;;;;;;;;;;;;;;1.99;100.00;98029.06;5036382;28;19913;-76
2021/01/30 06:36:33;;;;;;;;;;;;;;;1.95;100.00;98027.72;5036020;28;19913;-76
2021/01/30 06:39:40;;;;;;;;;;;;;;;1.94;100.00;98018.72;5036336;28;19913;-77
2021/01/30 06:42:45;;;;;;;;;;;;;;;1.81;100.00;98017.38;5035570;28;19921;-76
2021/01/30 06:45:49;;;;;;;;;;;;;;;1.61;100.00;98019.88;5035863;28;19916;-76
2021/01/30 06:48:53;;;;;;;;;;;;;;;1.61;100.00;98019.88;5035924;28;20293;-76
2021/01/30 06:52:04;;;;;;;;;;;;;;;1.53;100.00;98025.69;5035851;28;19913;-76
2021/01/30 06:55:08;;;;;;;;;;;;;;;1.46;100.00;98023.25;5034830;28;20389;-76
2021/01/30 06:58:23;;;;;;;;;;;;;;;1.45;100.00;98021.72;5015786;28;19913;-76
2021/01/30 07:01:36;;;;;;;;;;;;;;;1.43;100.00;98031.63;5015856;28;19917;-77
2021/01/30 07:04:39;;;;;;;;;;;;;;;1.34;100.00;98029.66;5015878;28;19918;-76
2021/01/30 07:08:01;;;;;;;;;;;;;;;1.33;100.00;98033.63;5015858;28;20273;-76
2021/01/30 07:11:11;;;;;;;;;;;;;;;1.31;100.00;98051.75;5015611;28;19921;-77
2021/01/30 07:14:22;;;;;;;;;;;;;;;1.30;100.00;98039.28;5019790;28;19898;-77
2021/01/30 07:17:50;;;;;;;;;;;;;;;1.28;100.00;98042.44;5016462;28;19921;-77
2021/01/30 07:21:05;;;;;;;;;;;;;;;1.21;100.00;98045.47;5002697;28;19913;-77
2021/01/30 07:24:17;;;;;;;;;;;;;;;1.12;100.00;98044.75;4995430;28;19917;-77
2021/01/30 07:27:26;;;;;;;;;;;;;;;1.14;100.00;98054.03;4995355;28;19913;-76
2021/01/30 07:30:46;;;;;;;;;;;;;;;1.11;100.00;98049.44;4995359;28;19914;-77
2021/01/30 07:33:52;;;;;;;;;;;;;;;1.12;100.00;98053.72;4995039;28;20297;-77
2021/01/30 07:37:18;;;;;;;;;;;;;;;1.13;100.00;98047.00;4994440;28;19914;-77
2021/01/30 07:40:37;;;;;;;;;;;;;;;1.15;100.00;98044.56;4995173;28;19913;-77
2021/01/30 07:43:46;;;;;;;;;;;;;;;1.17;100.00;98044.88;4995003;28;20143;-76
2021/01/30 07:47:00;;;;;;;;;;;;;;;1.14;100.00;98042.28;4995418;28;20536;-77
2021/01/30 07:50:05;;;;;;;;;;;;;;;1.15;100.00;98052.81;4995198;28;19922;-77
2021/01/30 07:53:13;;;;;;;;;;;;;;;1.17;100.00;98047.63;4995195;28;19909;-76
2021/01/30 07:56:16;;;;;;;;;;;;;;;1.18;100.00;98049.16;5004745;28;19918;-76
2021/01/30 07:59:21;;;;;;;;;;;;;;;1.20;100.00;98052.19;5014476;28;19913;-75
2021/01/30 08:02:33;;;;;;;;;;;;;;;1.20;100.00;98059.66;5014323;28;19925;-78
2021/01/30 08:05:37;;;;;;;;;;;;;;;1.20;100.00;98056.91;5014554;28;19913;-78
2021/01/30 08:08:59;;;;;;;;;;;;;;;1.21;100.00;98056.44;5014870;28;20412;-78
2021/01/30 08:12:11;;;;;;;;;;;;;;;1.28;100.00;98066.34;5014598;28;20281;-78
2021/01/30 08:15:20;;;;;;;;;;;;;;;1.26;100.00;98055.84;5053730;28;19913;-78
2021/01/30 08:18:40;;;;;;;;;;;;;;;1.38;100.00;98065.91;5054121;28;20272;-78
2021/01/30 08:21:59;;;;;;;;;;;;;;;1.37;100.00;98060.88;5047580;28;19912;-78
2021/01/30 08:25:02;;;;;;;;;;;;;;;1.35;100.00;98066.06;5036194;28;19944;-78
2021/01/30 08:28:15;;;;;;;;;;;;;;;1.22;100.00;98071.69;5053947;28;19913;-78
2021/01/30 08:31:32;;;;;;;;;;;;;;;1.22;100.00;98068.19;5053823;28;19913;-78
2021/01/30 08:34:36;;;;;;;;;;;;;;;1.23;100.00;98061.50;5054067;28;19912;-78
2021/01/30 08:37:39;;;;;;;;;;;;;;;1.22;100.00;98066.22;5053786;28;19912;-78
2021/01/30 08:40:42;;;;;;;;;;;;;;;1.21;100.00;98067.41;5053194;28;19912;-78
2021/01/30 08:43:48;;;;;;;;;;;;;;;1.26;100.00;98055.84;5053620;28;19921;-79
2021/01/30 08:47:04;;;;;;;;;;;;;;;1.24;100.00;98057.53;5053277;28;19913;-78
2021/01/30 08:50:07;;;;;;;;;;;;;;;1.25;100.00;98059.81;5053528;28;19913;-79
2021/01/30 08:53:15;;;;;;;;;;;;;;;1.28;100.00;98061.63;5053492;28;19913;-80
2021/01/30 08:56:37;;;;;;;;;;;;;;;1.32;100.00;98059.50;5053171;28;19917;-79
2021/01/30 08:59:44;;;;;;;;;;;;;;;1.32;100.00;98059.50;5053679;28;19913;-79
2021/01/30 09:02:49;;;;;;;;;;;;;;;1.29;100.00;98063.19;5052995;28;19946;-79
2021/01/30 09:05:52;;;;;;;;;;;;;;;1.31;100.00;98052.50;5053303;28;19913;-80
2021/01/30 09:09:04;;;;;;;;;;;;;;;1.31;100.00;98044.28;5053245;28;19913;-79
2021/01/30 09:12:07;;;;;;;;;;;;;;;1.31;100.00;98057.22;5052988;28;19912;-78
2021/01/30 09:15:10;;;;;;;;;;;;;;;1.31;100.00;98052.50;5052982;28;19912;-78
2021/01/30 09:18:32;;;;;;;;;;;;;;;1.32;100.00;98048.53;5053292;28;19917;-79
2021/01/30 09:21:52;;;;;;;;;;;;;;;1.30;100.00;98040.00;5047895;28;19913;-79
2021/01/30 09:25:03;;;;;;;;;;;;;;;1.36;100.00;98049.16;5033267;28;19916;-78
2021/01/30 09:28:13;;;;;;;;;;;;;;;1.34;100.00;98046.09;5033315;28;19917;-79
2021/01/30 09:31:17;;;;;;;;;;;;;;;1.32;100.00;98048.53;5032247;28;19913;-80
2021/01/30 09:34:21;;;;;;;;;;;;;;;1.34;100.00;98054.31;5032307;28;19913;-79
2021/01/30 09:37:28;;;;;;;;;;;;;;;1.35;100.00;98052.34;5033187;28;19921;-79
2021/01/30 09:40:31;;;;;;;;;;;;;;;1.36;100.00;98051.91;5032852;28;19917;-79
2021/01/30 09:43:35;;;;;;;;;;;;;;;1.45;100.00;98054.63;5032852;28;19917;-79
2021/01/30 09:46:42;;;;;;;;;;;;;;;1.46;100.00;98047.94;5032828;28;19913;-79
2021/01/30 09:49:48;;;;;;;;;;;;;;;1.50;100.00;98054.03;5032888;28;19917;-79
2021/01/30 09:52:56;;;;;;;;;;;;;;;1.48;100.00;98072.91;5032937;28;19913;-79
2021/01/30 09:56:12;;;;;;;;;;;;;;;1.51;100.00;98058.31;5032637;28;19917;-79
2021/01/30 09:59:21;;;;;;;;;;;;;;;1.53;100.00;98064.09;5034616;28;19912;-80
2021/01/30 10:02:26;;;;;;;;;;;;;;;1.54;100.00;98068.34;5036623;28;19921;-79
2021/01/30 10:05:30;;;;;;;;;;;;;;;1.56;100.00;98067.13;5036578;28;19917;-79
2021/01/30 10:08:33;;;;;;;;;;;;;;;1.59;100.00;98079.91;5035833;28;19913;-80
2021/01/30 10:11:38;;;;;;;;;;;;;;;1.64;100.00;98073.81;5035977;28;19913;-80
2021/01/30 10:14:44;;;;;;;;;;;;;;;1.62;100.00;98077.03;5035981;28;19913;-80
2021/01/30 10:17:47;;;;;;;;;;;;;;;1.65;100.00;98075.31;5035736;28;19917;-79
2021/01/30 10:21:00;;;;;;;;;;;;;;;1.63;100.00;98072.28;5035770;28;20308;-80
2021/01/30 10:24:16;;;;;;;;;;;;;;;1.63;100.00;98083.25;5015972;28;19921;-79
2021/01/30 10:27:27;;;;;;;;;;;;;;;1.70;100.00;98096.66;5016244;28;20305;-79
2021/01/30 10:30:30;;;;;;;;;;;;;;;1.71;100.00;98084.50;5004856;28;19913;-80
2021/01/30 10:33:33;;;;;;;;;;;;;;;1.68;100.00;98093.63;5015711;28;19913;-80
2021/01/30 10:36:38;;;;;;;;;;;;;;;1.73;100.00;98088.31;5016318;28;19987;-80
2021/01/30 10:39:44;;;;;;;;;;;;;;;1.76;100.00;98098.34;5016046;28;19913;-79
2021/01/30 10:42:48;;;;;;;;;;;;;;;1.81;100.00;98099.72;5015989;28;20294;-79
2021/01/30 10:45:58;;;;;;;;;;;;;;;1.86;100.00;98102.63;5016173;28;19914;-80
2021/01/30 10:49:02;;;;;;;;;;;;;;;1.92;100.00;98110.97;4999972;28;20357;-78
2021/01/30 10:52:22;;;;;;;;;;;;;;;2.12;100.00;98108.53;5016307;28;19921;-78
2021/01/30 10:55:35;;;;;;;;;;;;;;;2.25;100.00;98122.81;5015892;28;19921;-78
2021/01/30 10:58:38;;;;;;;;;;;;;;;2.18;100.00;98123.13;5016010;28;19913;-78
2021/01/30 11:01:41;;;;;;;;;;;;;;;2.14;100.00;98122.53;5015818;28;20305;-78
2021/01/30 11:04:58;;;;;;;;;;;;;;;2.06;100.00;98140.53;5015560;28;20381;-79
2021/01/30 11:08:03;;;;;;;;;;;;;;;2.05;100.00;98136.28;5015465;28;19913;-80
2021/01/30 11:11:08;;;;;;;;;;;;;;;2.16;100.00;98131.84;5015306;28;20340;-79
2021/01/30 11:14:18;;;;;;;;;;;;;;;2.21;100.00;98138.69;5016086;28;19913;-79
2021/01/30 11:17:25;;;;;;;;;;;;;;;2.16;100.00;98144.81;5016019;28;19913;-79
2021/01/30 11:20:48;;;;;;;;;;;;;;;2.17;100.00;98144.34;5015523;28;19913;-79
2021/01/30 11:23:52;;;;;;;;;;;;;;;2.16;100.00;98139.31;5015544;28;19918;-79
2021/01/30 11:26:55;;;;;;;;;;;;;;;2.10;100.00;98143.91;5015463;28;20321;-80
2021/01/30 11:30:11;;;;;;;;;;;;;;;2.10;100.00;98147.41;5015460;28;19913;-80
2021/01/30 11:33:15;;;;;;;;;;;;;;;2.16;100.00;98158.53;5015384;28;19913;-79
2021/01/30 11:36:19;;;;;;;;;;;;;;;2.19;100.00;98157.59;5015233;28;19913;-79
2021/01/30 11:39:24;;;;;;;;;;;;;;;2.20;100.00;98153.66;5015335;28;20289;-79
2021/01/30 11:42:28;;;;;;;;;;;;;;;2.19;100.00;98157.59;5014741;28;20350;-80
2021/01/30 11:45:31;;;;;;;;;;;;;;;2.19;100.00;98160.34;5014820;28;19921;-80
2021/01/30 11:48:35;;;;;;;;;;;;;;;2.20;100.00;98159.91;5015253;28;19918;-78
2021/01/30 11:51:39;;;;;;;;;;;;;;;2.13;100.00;98156.69;5015429;28;19914;-80
2021/01/30 11:54:42;;;;;;;;;;;;;;;2.20;100.00;98151.66;5015942;28;19913;-79
2021/01/30 11:57:45;;;;;;;;;;;;;;;2.18;100.00;98158.84;5015786;28;19921;-79
2021/01/30 12:00:49;;;;;;;;;;;;;;;2.16;100.00;98164.03;5015530;28;20285;-80
2021/01/30 12:03:52;;;;;;;;;;;;;;;2.16;100.00;98153.03;5014314;28;19917;-80
2021/01/30 12:06:55;;;;;;;;;;;;;;;2.15;100.00;98167.97;5014395;28;19913;-80
2021/01/30 12:09:59;;;;;;;;;;;;;;;2.15;100.00;98157.00;5014050;28;19914;-80
2021/01/30 12:13:02;;;;;;;;;;;;;;;2.14;100.00;98169.22;5013239;28;19917;-79
2021/01/30 12:16:06;;;;;;;;;;;;;;;2.10;100.00;98157.63;5013643;28;19913;-79
2021/01/30 12:19:09;;;;;;;;;;;;;;;2.12;100.00;98152.44;5014277;28;20293;-80
2021/01/30 12:22:12;;;;;;;;;;;;;;;2.16;100.00;98158.53;5022825;28;19913;-80
2021/01/30 12:25:16;;;;;;;;;;;;;;;2.22;100.00;98151.19;5033924;28;20361;-79
2021/01/30 12:28:23;;;;;;;;;;;;;;;2.31;100.00;98159.44;5034098;28;20289;-79
2021/01/30 12:31:27;;;;;;;;;;;;;;;2.40;100.00;98177.88;5034044;28;20285;-79
2021/01/30 12:34:30;;;;;;;;;;;;;;;2.40;100.00;98164.91;5033017;28;19913;-80
2021/01/30 12:37:34;;;;;;;;;;;;;;;2.44;100.00;98154.50;5021916;28;19938;-80
2021/01/30 12:40:42;;;;;;;;;;;;;;;2.45;100.00;98161.50;5033779;28;19913;-80
2021/01/30 12:43:46;;;;;;;;;;;;;;;2.49;100.00;98170.34;5033898;28;19917;-80
2021/01/30 12:46:49;;;;;;;;;;;;;;;2.50;100.00;98166.38;5033648;28;19913;-79
2021/01/30 12:49:53;;;;;;;;;;;;;;;2.49;100.00;98170.34;5033996;28;19943;-79
2021/01/30 12:52:57;;;;;;;;;;;;;;;2.45;100.00;98175.25;5033714;28;19912;-81
2021/01/30 12:56:00;;;;;;;;;;;;;;;2.47;100.00;98172.78;5034503;28;20357;-78
2021/01/30 12:59:04;;;;;;;;;;;;;;;2.54;100.00;98183.47;5033290;28;19916;-78
2021/01/30 13:02:08;;;;;;;;;;;;;;;2.55;100.00;98173.25;5029662;28;19913;-78
2021/01/30 13:05:11;;;;;;;;;;;;;;;2.60;100.00;98180.88;5033180;28;19916;-78
2021/01/30 13:08:15;;;;;;;;;;;;;;;2.61;100.00;98177.66;5033235;28;19917;-78
2021/01/30 13:11:19;;;;;;;;;;;;;;;2.63;100.00;98188.19;5033345;28;19913;-77
2021/01/30 13:14:22;;;;;;;;;;;;;;;2.63;100.00;98186.19;5033247;28;20481;-78
2021/01/30 13:17:25;;;;;;;;;;;;;;;2.60;100.00;98187.09;5021174;28;19917;-78
2021/01/30 13:20:29;;;;;;;;;;;;;;;2.43;100.00;98183.19;5020478;28;19913;-78
2021/01/30 13:23:33;;;;;;;;;;;;;;;2.39;100.00;98190.84;5013320;28;19917;-78
2021/01/30 13:26:39;;;;;;;;;;;;;;;2.40;100.00;98188.84;5013236;28;19914;-78
2021/01/30 13:29:45;;;;;;;;;;;;;;;2.44;100.00;98201.22;5013376;28;19925;-77
2021/01/30 13:32:49;;;;;;;;;;;;;;;2.40;100.00;98195.13;5012937;28;19913;-77
2021/01/30 13:35:53;;;;;;;;;;;;;;;2.46;100.00;98187.78;5013235;28;19913;-77
2021/01/30 13:38:58;;;;;;;;;;;;;;;2.47;100.00;98200.28;5013206;28;19914;-77
2021/01/30 13:42:02;;;;;;;;;;;;;;;2.47;100.00;98178.28;5013169;28;19913;-78
2021/01/30 13:45:06;;;;;;;;;;;;;;;2.47;100.00;98189.28;5013015;28;19925;-77
2021/01/30 13:48:09;;;;;;;;;;;;;;;2.41;100.00;98191.13;5013088;28;20365;-76
2021/01/30 13:51:12;;;;;;;;;;;;;;;2.44;100.00;98195.72;5013074;28;19914;-77
2021/01/30 13:54:16;;;;;;;;;;;;;;;2.43;100.00;98198.91;5012846;28;19917;-77
2021/01/30 13:57:20;;;;;;;;;;;;;;;2.44;100.00;98186.69;5012514;28;19917;-77
2021/01/30 14:00:23;;;;;;;;;;;;;;;2.41;100.00;98196.63;5012627;28;19913;-77
2021/01/30 14:03:26;;;;;;;;;;;;;;;2.40;100.00;98195.13;5012798;28;19925;-76
2021/01/30 14:06:29;;;;;;;;;;;;;;;2.40;100.00;98211.59;5012788;28;19913;-77
2021/01/30 14:09:33;;;;;;;;;;;;;;;2.34;100.00;98202.44;5012876;28;19917;-76
2021/01/30 14:12:36;;;;;;;;;;;;;;;2.33;100.00;98208.38;5012845;28;19914;-77
2021/01/30 14:15:39;;;;;;;;;;;;;;;2.33;100.00;98200.91;5012850;28;19962;-77
2021/01/30 14:18:43;;;;;;;;;;;;;;;2.31;100.00;98208.84;5000590;28;19914;-78
2021/01/30 14:21:46;;;;;;;;;;;;;;;2.29;100.00;98205.81;5019222;28;19913;-77
2021/01/30 14:24:49;;;;;;;;;;;;;;;2.29;100.00;98206.59;5032154;28;19917;-77
2021/01/30 14:27:52;;;;;;;;;;;;;;;2.28;100.00;98210.53;5032186;28;20285;-77
2021/01/30 14:30:56;;;;;;;;;;;;;;;2.27;100.00;98216.50;5032311;28;19917;-77
2021/01/30 14:33:59;;;;;;;;;;;;;;;2.32;100.00;98218.59;5032600;28;20345;-77
2021/01/30 14:37:02;;;;;;;;;;;;;;;2.29;100.00;98223.06;5032365;28;19916;-75
2021/01/30 14:40:06;;;;;;;;;;;;;;;2.27;100.00;98208.25;5032054;28;19916;-77
2021/01/30 14:43:10;;;;;;;;;;;;;;;2.20;100.00;98219.53;5032560;28;19913;-76
2021/01/30 14:46:13;;;;;;;;;;;;;;;2.17;100.00;98225.94;5035815;28;19913;-77
2021/01/30 14:49:16;;;;;;;;;;;;;;;2.15;100.00;98220.91;5036194;28;19913;-77
2021/01/30 14:52:20;;;;;;;;;;;;;;;2.12;100.00;98230.06;5035696;28;19913;-76
2021/01/30 14:55:23;;;;;;;;;;;;;;;2.09;100.00;98235.72;5035536;28;19917;-76
2021/01/30 14:58:27;;;;;;;;;;;;;;;2.07;100.00;98240.91;5035319;28;19917;-75
2021/01/30 15:01:30;;;;;;;;;;;;;;;2.10;100.00;98235.25;5035640;28;19913;-76
2021/01/30 15:04:33;;;;;;;;;;;;;;;2.06;100.00;98242.88;5035426;28;19917;-77
2021/01/30 15:07:39;;;;;;;;;;;;;;;2.04;100.00;98239.06;5035679;28;20365;-74
2021/01/30 15:10:45;;;;;;;;;;;;;;;2.03;100.00;98243.03;5035544;28;19913;-75
2021/01/30 15:13:48;;;;;;;;;;;;;;;2.01;100.00;98245.50;5035475;28;19913;-75
2021/01/30 15:16:52;;;;;;;;;;;;;;;2.01;100.00;98240.00;5035639;28;20362;-75
2021/01/30 15:19:55;;;;;;;;;;;;;;;1.97;100.00;98247.63;5036108;28;19913;-76
2021/01/30 15:22:59;;;;;;;;;;;;;;;1.95;100.00;98247.31;5033839;28;19913;-76
2021/01/30 15:26:02;;;;;;;;;;;;;;;1.94;100.00;98256.75;5019041;28;19917;-76
2021/01/30 15:29:06;;;;;;;;;;;;;;;1.91;100.00;98246.69;5034673;28;19917;-76
2021/01/30 15:32:09;;;;;;;;;;;;;;;1.93;100.00;98255.22;5035073;28;19913;-76
2021/01/30 15:35:12;;;;;;;;;;;;;;;1.89;100.00;98262.84;5035147;28;19913;-76
2021/01/30 15:38:15;;;;;;;;;;;;;;;1.90;100.00;98256.16;5035012;28;19913;-76
2021/01/30 15:41:19;;;;;;;;;;;;;;;1.87;100.00;98265.28;5034813;28;19913;-76
2021/01/30 15:44:22;;;;;;;;;;;;;;;1.86;100.00;98267.28;5034910;28;19917;-76
2021/01/30 15:47:26;;;;;;;;;;;;;;;1.85;100.00;98273.22;5034770;28;19917;-75
2021/01/30 15:50:30;;;;;;;;;;;;;;;1.83;100.00;98278.41;5034658;28;19917;-75
2021/01/30 15:53:34;;;;;;;;;;;;;;;1.83;100.00;98289.38;5022522;28;19913;-76
2021/01/30 15:56:37;;;;;;;;;;;;;;;1.79;100.00;98294.25;5033527;28;19917;-75
2021/01/30 15:59:40;;;;;;;;;;;;;;;1.86;100.00;98304.94;5022508;28;19921;-76
2021/01/30 16:02:43;;;;;;;;;;;;;;;1.81;100.00;98291.81;5033261;28;19913;-75
2021/01/30 16:05:49;;;;;;;;;;;;;;;1.79;100.00;98299.72;5034812;28;19921;-75
2021/01/30 16:08:52;;;;;;;;;;;;;;;1.72;100.00;98305.50;5034480;28;19917;-76
2021/01/30 16:11:55;;;;;;;;;;;;;;;1.66;100.00;98313.59;5034691;28;19917;-77
2021/01/30 16:14:58;;;;;;;;;;;;;;;1.69;100.00;98320.16;5033988;28;19913;-76
2021/01/30 16:18:02;;;;;;;;;;;;;;;1.65;100.00;98328.50;5022029;28;19913;-76
2021/01/30 16:21:05;;;;;;;;;;;;;;;1.61;100.00;98325.13;5034032;28;20389;-76
2021/01/30 16:24:12;;;;;;;;;;;;;;;1.58;100.00;98323.31;5034081;28;20365;-77
2021/01/30 16:27:15;;;;;;;;;;;;;;;1.56;100.00;98327.72;5021881;28;19913;-76
2021/01/30 16:30:19;;;;;;;;;;;;;;;1.52;100.00;98328.63;5034342;28;19913;-76
2021/01/30 16:33:24;;;;;;;;;;;;;;;1.46;100.00;98327.69;5033408;28;20002;-76
2021/01/30 16:36:27;;;;;;;;;;;;;;;1.43;100.00;98314.88;5033878;28;20324;-76
2021/01/30 16:39:30;;;;;;;;;;;;;;;1.40;100.00;98324.00;5033671;28;19917;-77
2021/01/30 16:42:34;;;;;;;;;;;;;;;1.38;100.00;98331.94;5033422;28;19913;-77
2021/01/30 16:45:37;;;;;;;;;;;;;;;1.36;100.00;98342.59;5033494;28;19917;-76
2021/01/30 16:48:40;;;;;;;;;;;;;;;1.33;100.00;98340.72;5021465;28;20273;-75
2021/01/30 16:51:43;;;;;;;;;;;;;;;1.32;100.00;98341.94;5033516;28;20362;-76
2021/01/30 16:54:46;;;;;;;;;;;;;;;1.31;100.00;98343.16;5033423;28;19965;-77
2021/01/30 16:57:50;;;;;;;;;;;;;;;1.26;100.00;98335.50;5027750;28;19917;-77
2021/01/30 17:00:53;;;;;;;;;;;;;;;1.25;100.00;98355.94;5033504;28;20373;-75
2021/01/30 17:03:57;;;;;;;;;;;;;;;1.23;100.00;98363.06;5033503;28;19917;-76
2021/01/30 17:07:01;;;;;;;;;;;;;;;1.19;100.00;98351.47;5032848;28;19912;-75
2021/01/30 17:10:04;;;;;;;;;;;;;;;1.15;100.00;98365.31;5029823;28;19916;-76
2021/01/30 17:13:09;;;;;;;;;;;;;;;1.14;100.00;98371.25;5033086;28;19913;-76